This is the latest recevied weather packets stored in our database for station/object W7MKM-13. If no packets are shown the sender has not sent any weather packets the latest 10 day(s).
| Time | Temp. | Humidity | Pressure | Rain* | Wind** | Luminosity | Snow |
|---|---|---|---|---|---|---|---|
| 1777089616 | 8.89° C | 39% | 1009.4 hPa | 0 mm | - | 0 W/m² | - |
| 1777089316 | 8.89° C | 38% | 1009.4 hPa | 0 mm | - | 0 W/m² | - |
| 1777089016 | 9.44° C | 38% | 1009 hPa | 0 mm | - | 0 W/m² | - |
| 1777086316 | 10° C | 37% | 1008 hPa | 0 mm | - | 0 W/m² | - |
| 1777085716 | 10.56° C | 38% | 1007.8 hPa | 0 mm | - | 0 W/m² | - |
| 1777085116 | 11.11° C | 37% | 1007.4 hPa | 0 mm | - | 0 W/m² | - |
| 1777083616 | 12.22° C | 37% | 1007 hPa | 0 mm | - | 1 W/m² | - |
| 1777082416 | 13.33° C | 36% | 1006.9 hPa | 0 mm | - | 18 W/m² | - |
| 1777080916 | 13.89° C | 33% | 1006.4 hPa | 0 mm | - | 58 W/m² | - |
| 1777076416 | 15.56° C | 32% | 1006.3 hPa | 0 mm | - | 353 W/m² | - |
| 1777075816 | 16.11° C | 32% | 1006.1 hPa | 0 mm | - | 352 W/m² | - |
| 1777073716 | 16.11° C | 32% | 1006.3 hPa | 0 mm | - | 434 W/m² | - |
| 1777073116 | 16.67° C | 32% | 1006.2 hPa | 0 mm | - | 693 W/m² | - |
| 1777070416 | 17.22° C | 31% | 1007 hPa | 0 mm | - | 769 W/m² | - |
| 1777066816 | 16.67° C | 30% | 1007.9 hPa | 0 mm | - | 522 W/m² | - |
| 1777065316 | 16.67° C | 32% | 1008.6 hPa | 0 mm | - | 894 W/m² | - |
| 1777064716 | 16.11° C | 30% | 1008.5 hPa | 0 mm | - | 871 W/m² | - |
| 1777064116 | 16.11° C | 31% | 1008.7 hPa | 0 mm | - | 914 W/m² | - |
| 1777062616 | 15.56° C | 31% | 1009 hPa | 0 mm | - | 933 W/m² | - |
| 1777062016 | 16.11° C | 30% | 1009.5 hPa | 0 mm | - | 942 W/m² | - |
| 1777061415 | 16.11° C | 31% | 1009.6 hPa | 0 mm | - | 951 W/m² | - |
| 1777057216 | 16.11° C | 32% | 1010.5 hPa | 0 mm | - | 959 W/m² | - |
| 1777056916 | 16.11° C | 30% | 1010.4 hPa | 0 mm | - | 960 W/m² | - |
| 1777051816 | 15.56° C | 26% | 1011.7 hPa | 0 mm | - | 862 W/m² | - |
| 1777050316 | 15° C | 28% | 1011.9 hPa | 0 mm | - | 812 W/m² | - |
* Rain latest hour (hover to see other rain measurements)
** Current wind speed in m/s (hover to see current wind gust speed)